• Join FlightAware (Why Join?)
  • Login
  • US Flag 
03:32PM EST


 

Airport Tracker/Info


-or-


 

Live Flight TrackerFlight Track Log ✈ USC105 ✈ 27-Jun-2013 ✈ KYIP - KDPA

Flight Track Log - Related Links

Times and Time Zones

All times are in EDT time to prevent confusion due to time zone crossing. See the USC105 flight status page for this flight to view local times or setup timezone preferences in your user account.

Time Position Orientation Groundspeed Altitude Reporting Facility
EDT Latitude Longitude Course Direction KTS MPH feet Rate Location/Type
12:11AM 42.2439 -83.5844 268° West 131 151 1,600  Level Cleveland Center
12:12AM 42.2425 -83.6378 268° West 136 157 2,400 780 Climbing Cleveland Center
12:13AM 42.2389 -83.6936 265° West 150 173 3,200 780 Climbing Cleveland Center
12:14AM 42.2375 -83.7439 268° West 152 175 3,900 840 Climbing Cleveland Center
12:15AM 42.2317 -83.8056 263° West 150 173 4,900 720 Climbing Cleveland Center
12:17AM 42.2303 -83.9094 269° West 155 178 6,000 360 Climbing Chicago Center
12:18AM 42.2300 -83.9800 270° West 171 197 6,000  Level Chicago Center
12:19AM 42.2244 -84.0581 265° West 195 224 6,000  Level Chicago Center
12:20AM 42.2186 -84.1317 264° West 198 228 6,000  Level Chicago Center
12:21AM 42.2147 -84.2061 266° West 200 230 6,000  Level Chicago Center
12:22AM 42.2092 -84.2778 264° West 195 224 6,000  Level Chicago Center
12:23AM 42.2056 -84.3528 266° West 199 229 6,000  Level Chicago Center
12:24AM 42.2014 -84.4258 266° West 197 227 6,000  Level Chicago Center
12:25AM 42.1964 -84.4983 265° West 195 224 6,000  Level Chicago Center
12:26AM 42.1925 -84.5681 266° West 196 226 6,000  Level Chicago Center
12:27AM 42.1878 -84.6419 265° West 197 227 6,000  Level Chicago Center
12:28AM 42.1828 -84.7300 266° West 198 228 6,000  Level Chicago Center
12:29AM 42.1778 -84.8019 265° West 195 224 6,000  Level Chicago Center
12:30AM 42.1736 -84.8731 266° West 194 223 6,000  Level Chicago Center
12:31AM 42.1681 -84.9433 264° West 190 219 6,000  Level Chicago Center
12:32AM 42.1636 -85.0158 265° West 193 222 6,000  Level Chicago Center
12:33AM 42.1594 -85.0889 266° West 195 224 6,000  Level Chicago Center
12:34AM 42.1544 -85.1631 265° West 199 229 6,000  Level Chicago Center
12:35AM 42.1497 -85.2378 265° West 201 231 6,000  Level Chicago Center
12:36AM 42.1444 -85.3144 265° West 205 236 6,000  Level Chicago Center
12:37AM 42.1397 -85.3897 265° West 205 236 6,000  Level Chicago Center
12:38AM 42.1350 -85.4642 265° West 202 232 6,000  Level Chicago Center
12:39AM 42.1281 -85.5525 264° West 200 230 6,000  Level Chicago Center
12:40AM 42.1228 -85.6272 265° West 200 230 6,000  Level Chicago Center
12:41AM 42.1172 -85.7017 264° West 201 231 6,000  Level Chicago Center
12:42AM 42.1119 -85.7769 265° West 202 232 6,000  Level Chicago Center
12:43AM 42.1061 -85.8519 264° West 202 232 6,000  Level Chicago Center
12:44AM 42.1014 -85.9267 265° West 201 231 6,000  Level Chicago Center
12:45AM 42.0956 -86.0014 264° West 201 231 6,000  Level Chicago Center
12:46AM 42.0906 -86.0756 265° West 200 230 6,000  Level Chicago Center
12:47AM 42.0850 -86.1519 264° West 204 235 6,000  Level Chicago Center
12:48AM 42.0781 -86.2283 263° West 207 238 6,000  Level Chicago Center
12:49AM 42.0733 -86.3039 265° West 204 235 6,000  Level Chicago Center
12:50AM 42.0664 -86.3792 263° West 203 234 6,000  Level Chicago Center
12:51AM 42.0603 -86.4692 265° West 202 232 6,000  Level Chicago Center
12:52AM 42.0542 -86.5439 264° West 202 232 6,000  Level Chicago Center
12:53AM 42.0492 -86.6200 265° West 203 234 6,000  Level Chicago Center
12:54AM 42.0428 -86.6933 263° West 199 229 6,000  Level Chicago Center
12:55AM 42.0378 -86.7697 265° West 203 234 6,000  Level Chicago Center
12:56AM 42.0317 -86.8411 263° West 202 232 6,000  Level Chicago Center
12:57AM 42.0272 -86.9169 266° West 204 235 6,000  Level Chicago Center
12:58AM 42.0197 -86.9908 262° West 202 232 6,000 -60 Level Chicago Center
12:59AM 42.0128 -87.0647 263° West 201 231 5,900 -60 Descending Chicago Center
01:00AM 42.0075 -87.1383 265° West 200 230 5,900  Level Chicago Center
01:01AM 42.0000 -87.2275 264° West 202 232 6,000  Climbing Chicago Center
01:02AM 41.9944 -87.3006 264° West 198 228 6,000  Level Chicago Center
01:03AM 41.9861 -87.3725 261° West 196 226 6,000  Level Chicago Center
01:04AM 41.9661 -87.4400 248° West 201 231 6,000  Level Chicago Center
01:05AM 41.9386 -87.5042 240° Southwest 199 229 6,000  Level Chicago Center
01:06AM 41.8906 -87.5400 209° Southwest 205 236 6,000  Level Chicago Center
01:07AM 41.8408 -87.5694 204° Southwest 198 228 6,000  Level Chicago Center
01:08AM 41.7900 -87.5986 203° Southwest 198 228 6,000  Level Chicago Center
01:09AM 41.7761 -87.6567 252° West 181 208 6,000  Level Chicago Center
01:10AM 41.7758 -87.7214 270° West 178 205 6,000  Level Chicago Center
01:11AM 41.7772 -87.7983 271° West 173 199 6,000 -60 Level Chicago Center
01:12AM 41.7753 -87.8614 268° West 172 198 5,900 -300 Descending Chicago Center
01:13AM 41.7828 -87.9258 279° West 176 203 5,400 -480 Descending Chicago Center
01:14AM 41.7878 -87.9925 276° West 181 208 5,000 -540 Descending Chicago Center
01:16AM 41.7961 -88.0561 280° West 179 206 4,400 -600 Descending Chicago Center
01:17AM 41.8231 -88.1097 304° West 178 205 3,800 -660 Descending Chicago Center
01:18AM 41.8481 -88.1628 302° West 172 198 3,100 -900 Descending Chicago Center
01:19AM 41.8636 -88.2242 289° West 172 198 2,100 -1,140 Descending Chicago Center
01:20AM 41.8892 -88.2567 317° Northwest 150 173 900 -1,200 Descending Chicago Center
01:22AM 41.9000 -88.2333 270° West  Level FlightAware Approximate